2023/01/27 15:00 VVNB 271500Z 08005KT 9000 NSC 14/05 Q1026 NOSIG
2023/01/27 15:00 VVDN 271500Z 32005KT 4500 -RA BR FEW005 SCT010 BKN040 18/18 Q1020 NOSIG
2023/01/27 15:00 VVTS 271500Z 06008KT 020V090 9999 FEW017 SCT050 26/22 Q1010 NOSIG
2023/01/27 15:00 VVPB 271500Z 35007KT 2000 RA BR SCT006 SCT013 BKN040 18/17 Q1022 NOSIG

Powered by MinhViet JSC.